createdAt,value
2018-03-30T00:00:56.495Z,51.6
2018-03-30T00:01:58.151Z,61.0
2018-03-30T00:02:59.791Z,57.2
2018-03-30T00:04:01.444Z,52.2
2018-03-30T00:05:03.084Z,59.9
2018-03-30T00:06:04.868Z,65.7
2018-03-30T00:07:06.523Z,64.7
2018-03-30T00:08:08.170Z,91.0
2018-03-30T00:09:09.822Z,64.8
2018-03-30T00:10:11.468Z,64.7
2018-03-30T00:11:13.100Z,105.5
2018-03-30T00:12:14.748Z,64.9
2018-03-30T00:13:16.392Z,65.9
2018-03-30T00:14:18.042Z,82.2
2018-03-30T00:15:19.687Z,70.3
2018-03-30T00:16:21.328Z,99.2
2018-03-30T00:17:23.002Z,59.4
2018-03-30T00:18:24.621Z,55.3
2018-03-30T00:19:26.265Z,66.8
2018-03-30T00:20:27.919Z,54.8
2018-03-30T00:21:29.555Z,52.5
2018-03-30T00:22:31.219Z,51.9
2018-03-30T00:23:32.864Z,56.5
2018-03-30T00:24:34.507Z,48.9
2018-03-30T00:25:36.173Z,46.2
2018-03-30T00:26:37.812Z,46.3
2018-03-30T00:27:39.465Z,46.7
2018-03-30T00:28:41.108Z,43.5
2018-03-30T00:29:42.758Z,46.1
2018-03-30T00:30:44.401Z,38.8
2018-03-30T00:31:46.052Z,41.0
2018-03-30T00:32:47.710Z,37.5
2018-03-30T00:33:49.351Z,39.0
2018-03-30T00:34:51.000Z,39.4
2018-03-30T00:35:52.660Z,39.6
2018-03-30T00:36:54.303Z,37.8
2018-03-30T00:37:55.968Z,38.4
2018-03-30T00:38:57.614Z,36.1
2018-03-30T00:39:59.268Z,37.2
2018-03-30T00:41:00.914Z,39.5
2018-03-30T00:42:02.573Z,37.3
2018-03-30T00:43:04.224Z,41.3
2018-03-30T00:44:05.898Z,37.3
2018-03-30T00:45:07.544Z,36.1
2018-03-30T00:46:09.191Z,38.3
2018-03-30T00:47:10.849Z,41.5
2018-03-30T00:48:12.512Z,36.8
2018-03-30T00:49:14.178Z,37.9
2018-03-30T00:50:15.832Z,37.6
2018-03-30T00:51:17.483Z,36.6
2018-03-30T00:52:19.133Z,39.9
2018-03-30T00:53:20.783Z,37.1
2018-03-30T00:54:22.432Z,36.9
2018-03-30T00:55:24.073Z,36.2
2018-03-30T00:56:25.731Z,36.6
2018-03-30T00:57:27.390Z,38.7
2018-03-30T00:58:29.050Z,39.3
2018-03-30T00:59:30.710Z,35.5
2018-03-30T01:00:32.357Z,36.6
2018-03-30T01:01:34.008Z,48.1
2018-03-30T01:02:35.648Z,42.8
2018-03-30T01:03:37.292Z,44.5
2018-03-30T01:04:38.939Z,43.1
2018-03-30T01:05:40.586Z,49.1
2018-03-30T01:06:42.233Z,53.2
2018-03-30T01:07:43.880Z,53.1
2018-03-30T01:08:45.533Z,49.7
2018-03-30T01:09:47.176Z,50.2
2018-03-30T01:10:48.834Z,45.4
2018-03-30T01:11:50.476Z,38.8
2018-03-30T01:12:52.115Z,39.1
2018-03-30T01:13:53.771Z,39.4
2018-03-30T01:14:55.415Z,37.7
2018-03-30T01:15:57.063Z,36.8
2018-03-30T01:16:58.711Z,38.5
2018-03-30T01:18:00.362Z,34.8
2018-03-30T01:19:02.013Z,39.4
2018-03-30T01:20:03.667Z,38.0
2018-03-30T01:21:05.305Z,35.3
2018-03-30T01:22:06.954Z,35.8
2018-03-30T01:23:08.608Z,36.9
2018-03-30T01:24:10.267Z,37.0
2018-03-30T01:25:11.903Z,33.9
2018-03-30T01:26:13.554Z,31.0
2018-03-30T01:27:15.204Z,31.2
2018-03-30T01:28:16.850Z,31.3
2018-03-30T01:29:18.505Z,33.5
2018-03-30T01:30:20.170Z,30.4
2018-03-30T01:31:21.822Z,31.1
2018-03-30T01:32:23.467Z,33.1
2018-03-30T01:33:25.111Z,29.1
2018-03-30T01:34:26.776Z,29.5
2018-03-30T01:35:28.415Z,27.1
2018-03-30T01:36:30.067Z,31.0
2018-03-30T01:37:31.771Z,30.0
2018-03-30T01:38:33.589Z,30.9
2018-03-30T01:39:35.248Z,32.8
2018-03-30T01:40:36.894Z,30.2
2018-03-30T01:41:38.565Z,29.9
2018-03-30T01:42:40.211Z,30.6
2018-03-30T01:43:41.857Z,28.1
2018-03-30T01:44:43.554Z,28.6
2018-03-30T01:45:45.157Z,31.0
2018-03-30T01:46:46.838Z,30.1
2018-03-30T01:47:48.479Z,32.9
2018-03-30T01:48:50.115Z,29.9
2018-03-30T01:49:51.766Z,30.1
2018-03-30T01:50:53.429Z,28.2
2018-03-30T01:51:55.077Z,31.3
2018-03-30T01:52:56.719Z,25.9
2018-03-30T01:53:58.366Z,27.6
2018-03-30T01:55:00.019Z,27.6
2018-03-30T01:56:01.674Z,26.7
2018-03-30T02:02:12.595Z,22.6
2018-03-30T02:03:14.248Z,26.2
2018-03-30T02:04:15.894Z,30.4
2018-03-30T02:05:17.531Z,28.9
2018-03-30T02:06:19.182Z,28.1
2018-03-30T02:07:20.834Z,30.6
2018-03-30T02:08:22.492Z,28.9
2018-03-30T02:09:24.141Z,29.6
2018-03-30T02:10:25.787Z,29.2
2018-03-30T02:11:27.775Z,29.1
2018-03-30T02:12:29.424Z,31.2
2018-03-30T02:13:31.084Z,32.6
2018-03-30T02:14:32.711Z,27.7
2018-03-30T02:15:34.353Z,29.7
2018-03-30T02:16:36.001Z,28.4
2018-03-30T02:17:37.648Z,27.3
2018-03-30T02:18:39.293Z,29.5
2018-03-30T02:19:40.973Z,27.8
2018-03-30T02:20:42.623Z,28.0
2018-03-30T02:21:44.881Z,29.1
2018-03-30T02:22:46.527Z,30.5
2018-03-30T02:23:48.178Z,28.0
2018-03-30T02:24:49.832Z,27.7
2018-03-30T02:25:51.469Z,27.5
2018-03-30T02:26:53.116Z,29.0
2018-03-30T02:27:54.754Z,29.7
2018-03-30T02:28:56.407Z,25.5
2018-03-30T02:29:58.390Z,27.5
2018-03-30T02:31:00.033Z,29.5
2018-03-30T02:32:01.694Z,31.1
2018-03-30T02:33:03.342Z,30.2
2018-03-30T02:34:04.993Z,30.1
2018-03-30T02:35:06.648Z,30.0
2018-03-30T02:36:08.302Z,31.1
2018-03-30T02:37:10.278Z,28.4
2018-03-30T02:38:11.948Z,28.4
2018-03-30T02:39:13.974Z,27.8
2018-03-30T02:40:15.631Z,28.3
2018-03-30T02:41:17.277Z,29.1
2018-03-30T02:42:19.010Z,32.6
2018-03-30T02:43:20.674Z,26.5
2018-03-30T02:44:22.321Z,27.1
2018-03-30T02:45:23.974Z,28.9
2018-03-30T02:46:25.644Z,27.2
2018-03-30T02:47:27.298Z,25.2
2018-03-30T02:48:28.958Z,28.8
2018-03-30T02:49:30.602Z,28.8
2018-03-30T02:50:32.247Z,25.7
2018-03-30T02:51:33.907Z,27.2
2018-03-30T02:52:35.556Z,26.9
2018-03-30T02:53:37.198Z,29.0
2018-03-30T02:54:39.021Z,32.7
2018-03-30T02:55:40.857Z,28.7
2018-03-30T02:56:42.440Z,30.2
2018-03-30T02:57:44.104Z,29.5
2018-03-30T02:58:45.753Z,28.3
2018-03-30T02:59:47.408Z,25.8
2018-03-30T03:00:49.069Z,27.8
2018-03-30T03:01:50.724Z,28.3
2018-03-30T03:02:52.372Z,33.6
2018-03-30T03:03:54.019Z,41.3
2018-03-30T03:04:55.763Z,41.3
2018-03-30T03:05:57.383Z,39.9
2018-03-30T03:06:59.032Z,44.2
2018-03-30T03:08:00.671Z,51.3
2018-03-30T03:09:02.309Z,45.7
2018-03-30T03:10:03.963Z,61.6
2018-03-30T03:11:05.622Z,46.0
2018-03-30T03:12:07.267Z,47.4
2018-03-30T03:13:08.923Z,56.8
2018-03-30T03:14:11.153Z,51.6
2018-03-30T03:15:12.877Z,52.8
2018-03-30T03:16:14.581Z,54.2
2018-03-30T03:17:16.223Z,86.7
2018-03-30T03:18:17.932Z,96.4
2018-03-30T03:19:19.584Z,68.6
2018-03-30T03:20:21.231Z,69.3
2018-03-30T03:21:22.882Z,109.4
2018-03-30T03:22:24.549Z,171.2
2018-03-30T03:23:26.233Z,154.6
2018-03-30T03:24:27.826Z,160.2
2018-03-30T03:25:29.488Z,92.9
2018-03-30T03:26:31.133Z,208.2
2018-03-30T03:27:32.793Z,121.9
2018-03-30T03:28:34.856Z,104.0
2018-03-30T03:29:36.721Z,65.7
2018-03-30T03:30:38.357Z,76.7
2018-03-30T03:31:40.005Z,61.2
2018-03-30T03:32:41.649Z,104.2
2018-03-30T03:33:43.309Z,84.2
2018-03-30T03:34:44.956Z,136.7
2018-03-30T03:35:46.603Z,81.1
2018-03-30T03:36:48.375Z,90.4
2018-03-30T03:37:50.010Z,77.4
2018-03-30T03:38:51.660Z,56.7
2018-03-30T03:39:53.304Z,117.5
2018-03-30T03:40:54.946Z,91.0
2018-03-30T03:41:56.596Z,60.7
2018-03-30T03:42:58.241Z,67.4
2018-03-30T03:43:59.893Z,61.8
2018-03-30T03:45:01.535Z,55.5
2018-03-30T03:46:03.175Z,49.9
2018-03-30T03:47:04.833Z,48.1
2018-03-30T03:48:06.672Z,52.8
2018-03-30T03:49:08.324Z,50.7
2018-03-30T03:50:09.975Z,50.3
2018-03-30T03:51:11.626Z,48.9
2018-03-30T03:52:13.268Z,39.2
2018-03-30T03:53:15.002Z,41.0
2018-03-30T03:54:16.719Z,38.0
2018-03-30T03:55:18.449Z,35.7
2018-03-30T03:56:20.129Z,34.9
2018-03-30T03:57:21.782Z,36.6
2018-03-30T03:58:23.430Z,31.1
2018-03-30T03:59:25.080Z,28.8
2018-03-30T04:00:26.734Z,29.4
2018-03-30T04:01:28.427Z,32.0
2018-03-30T04:02:30.108Z,29.9
2018-03-30T04:03:31.757Z,26.6
2018-03-30T04:04:33.480Z,29.5
2018-03-30T04:05:35.121Z,24.5
2018-03-30T04:06:36.766Z,30.7
2018-03-30T04:07:38.489Z,28.5
2018-03-30T04:08:40.131Z,30.2
2018-03-30T04:09:41.862Z,28.0
2018-03-30T04:10:43.508Z,25.1
2018-03-30T04:11:45.156Z,25.8
2018-03-30T04:12:46.799Z,27.9
2018-03-30T04:13:48.449Z,25.4
2018-03-30T04:14:50.092Z,30.5
2018-03-30T04:15:51.802Z,28.9
2018-03-30T04:16:53.449Z,27.3
2018-03-30T04:17:55.101Z,29.1
2018-03-30T04:18:56.746Z,26.5
2018-03-30T04:19:58.398Z,26.3
2018-03-30T04:21:00.039Z,28.4
2018-03-30T04:22:01.684Z,28.4
2018-03-30T04:23:03.342Z,26.7
2018-03-30T04:24:04.999Z,27.0
2018-03-30T04:25:06.646Z,28.1
2018-03-30T04:26:08.292Z,85.8
2018-03-30T04:27:09.961Z,89.9
2018-03-30T04:28:11.576Z,99.8
2018-03-30T04:29:13.262Z,64.7
2018-03-30T04:30:14.932Z,181.8
2018-03-30T04:31:16.579Z,193.4
2018-03-30T04:32:18.222Z,140.8
2018-03-30T04:33:19.874Z,124.1
2018-03-30T04:34:21.514Z,132.3
2018-03-30T04:35:23.157Z,225.6
2018-03-30T04:36:24.798Z,188.9
2018-03-30T04:37:26.457Z,157.3
2018-03-30T04:38:28.100Z,47.5
2018-03-30T04:39:29.754Z,35.8
2018-03-30T04:40:31.456Z,52.7
2018-03-30T04:41:33.060Z,47.2
2018-03-30T04:42:34.701Z,54.6
2018-03-30T04:43:36.355Z,82.7
2018-03-30T04:44:38.014Z,81.7
2018-03-30T04:45:39.672Z,80.5
2018-03-30T04:46:41.317Z,79.2
2018-03-30T04:47:42.964Z,170.9
2018-03-30T04:48:44.611Z,72.8
2018-03-30T04:49:46.775Z,67.9
2018-03-30T04:50:48.121Z,50.6
2018-03-30T04:51:49.851Z,46.3
2018-03-30T04:52:51.491Z,39.5
2018-03-30T04:53:53.138Z,37.4
2018-03-30T04:54:54.800Z,36.7
2018-03-30T04:55:56.448Z,34.8
2018-03-30T04:56:58.289Z,33.3
2018-03-30T04:57:59.951Z,32.6
2018-03-30T04:59:01.608Z,34.7
2018-03-30T05:00:03.266Z,35.1
2018-03-30T05:01:04.918Z,38.3
2018-03-30T05:02:06.573Z,40.5
2018-03-30T05:03:08.241Z,43.5
2018-03-30T05:04:09.882Z,39.7
2018-03-30T05:05:11.533Z,42.9
2018-03-30T05:06:13.184Z,42.5
2018-03-30T05:07:14.844Z,42.5
2018-03-30T05:08:16.508Z,47.7
2018-03-30T05:09:18.156Z,51.0
2018-03-30T05:10:19.838Z,49.3
2018-03-30T05:11:21.496Z,44.5
2018-03-30T05:12:23.137Z,74.2
2018-03-30T05:13:24.795Z,54.1
2018-03-30T05:14:26.484Z,53.0
2018-03-30T05:15:28.137Z,51.5
2018-03-30T05:16:29.807Z,48.2
2018-03-30T05:17:31.445Z,49.1
2018-03-30T05:18:33.092Z,54.8
2018-03-30T05:19:34.746Z,108.3
2018-03-30T05:20:36.398Z,105.2
2018-03-30T05:21:38.056Z,139.6
2018-03-30T05:22:39.708Z,95.6
2018-03-30T05:23:41.367Z,90.5
2018-03-30T05:24:43.026Z,66.5
2018-03-30T05:25:44.674Z,64.0
2018-03-30T05:26:46.613Z,64.6
2018-03-30T05:27:48.266Z,63.5
2018-03-30T05:28:50.145Z,142.6
2018-03-30T05:29:51.802Z,104.5
2018-03-30T05:30:53.457Z,120.8
2018-03-30T05:31:55.107Z,218.6
2018-03-30T05:32:56.760Z,235.4
2018-03-30T05:33:58.413Z,296.6
2018-03-30T05:35:00.068Z,385.8
2018-03-30T05:36:01.723Z,275.6
2018-03-30T05:37:03.369Z,350.7
2018-03-30T05:38:05.028Z,350.9
2018-03-30T05:39:06.685Z,318.5
2018-03-30T05:40:08.343Z,295.7
2018-03-30T05:41:10.004Z,237.3
2018-03-30T05:42:11.650Z,245.0
2018-03-30T05:43:13.302Z,212.8
2018-03-30T05:44:14.961Z,462.4
2018-03-30T05:45:17.493Z,347.8
2018-03-30T05:46:19.254Z,202.2
2018-03-30T05:47:20.861Z,211.3
2018-03-30T05:48:22.521Z,264.1
2018-03-30T05:49:24.171Z,245.6
2018-03-30T05:50:25.830Z,261.4
2018-03-30T05:51:27.485Z,211.0
2018-03-30T05:52:29.149Z,213.0
2018-03-30T05:53:30.794Z,181.8
2018-03-30T05:54:32.455Z,182.8
2018-03-30T05:55:34.099Z,131.6
2018-03-30T06:01:44.430Z,139.9
2018-03-30T06:02:46.074Z,228.7
2018-03-30T06:03:47.726Z,158.3
2018-03-30T06:04:49.377Z,264.2
2018-03-30T06:05:51.059Z,268.6
2018-03-30T06:06:52.712Z,273.4
2018-03-30T06:07:54.357Z,243.5
2018-03-30T06:08:56.014Z,285.6
2018-03-30T06:09:57.709Z,254.0
2018-03-30T06:10:59.299Z,300.1
2018-03-30T06:12:00.955Z,234.1
2018-03-30T06:13:02.603Z,331.3
2018-03-30T06:14:04.249Z,394.9
2018-03-30T06:15:05.906Z,310.5
2018-03-30T06:16:07.569Z,127.7
2018-03-30T06:17:09.217Z,82.4
2018-03-30T06:18:14.007Z,64.8
2018-03-30T06:19:15.527Z,62.0
2018-03-30T06:20:17.159Z,57.2
2018-03-30T06:21:18.819Z,48.7
2018-03-30T06:22:20.471Z,49.7
2018-03-30T06:23:22.124Z,54.3
2018-03-30T06:24:23.775Z,57.3
2018-03-30T06:25:25.428Z,111.1
2018-03-30T06:26:27.083Z,117.5
2018-03-30T06:27:28.736Z,80.5
2018-03-30T06:28:30.389Z,64.7
2018-03-30T06:29:32.051Z,65.4
2018-03-30T06:30:33.697Z,73.8
2018-03-30T06:31:35.346Z,56.0
2018-03-30T06:32:37.040Z,55.9
2018-03-30T06:33:38.696Z,47.1
2018-03-30T06:34:40.405Z,103.5
2018-03-30T06:35:42.002Z,43.9
2018-03-30T06:36:43.654Z,122.8
2018-03-30T06:37:45.311Z,108.3
2018-03-30T06:38:46.960Z,79.8
2018-03-30T06:39:48.614Z,55.5
2018-03-30T06:40:50.273Z,57.7
2018-03-30T06:41:51.932Z,62.2
2018-03-30T06:42:53.584Z,49.9
2018-03-30T06:43:55.244Z,69.2
2018-03-30T06:44:56.911Z,77.2
2018-03-30T06:45:58.577Z,46.0
2018-03-30T06:47:00.258Z,43.4
2018-03-30T06:48:01.966Z,81.9
2018-03-30T06:49:03.631Z,82.6
2018-03-30T06:50:05.317Z,75.1
2018-03-30T06:51:06.973Z,97.2
2018-03-30T06:52:08.635Z,58.2
2018-03-30T06:53:10.289Z,45.3
2018-03-30T06:54:11.955Z,58.1
2018-03-30T06:55:13.620Z,65.6
2018-03-30T06:56:15.296Z,50.7
2018-03-30T06:57:16.955Z,37.3
2018-03-30T06:58:18.627Z,42.3
2018-03-30T06:59:20.292Z,61.9
2018-03-30T07:00:21.969Z,41.6
2018-03-30T07:01:23.631Z,26.7
2018-03-30T07:02:25.288Z,29.0
2018-03-30T07:03:27.003Z,35.0
2018-03-30T07:04:28.667Z,35.1
2018-03-30T07:05:30.329Z,44.1
2018-03-30T07:06:31.978Z,61.1
2018-03-30T07:07:33.636Z,53.4
2018-03-30T07:08:35.304Z,40.7
2018-03-30T07:09:36.962Z,39.8
2018-03-30T07:10:38.627Z,37.5
2018-03-30T07:11:40.287Z,25.6
2018-03-30T07:12:41.945Z,25.0
2018-03-30T07:13:43.602Z,32.7
2018-03-30T07:14:45.274Z,29.9
2018-03-30T07:15:46.938Z,29.1
2018-03-30T07:16:48.601Z,32.0
2018-03-30T07:17:50.259Z,28.5
2018-03-30T07:18:51.924Z,22.5
2018-03-30T07:19:53.587Z,22.6
2018-03-30T07:20:55.247Z,23.2
2018-03-30T07:21:56.911Z,26.0
2018-03-30T07:22:58.578Z,35.0
2018-03-30T07:24:00.234Z,27.8
2018-03-30T07:25:01.898Z,22.5
2018-03-30T07:26:03.558Z,22.8
2018-03-30T07:27:05.242Z,23.1
2018-03-30T07:28:06.927Z,22.1
2018-03-30T07:29:08.591Z,23.5
2018-03-30T07:30:10.256Z,21.2
2018-03-30T07:31:11.939Z,19.6
2018-03-30T07:32:13.601Z,20.3
2018-03-30T07:33:15.261Z,18.5
2018-03-30T07:34:16.926Z,23.4
2018-03-30T07:35:18.590Z,22.1
2018-03-30T07:36:20.257Z,22.0
2018-03-30T07:37:21.930Z,21.6
2018-03-30T07:38:23.586Z,20.8
2018-03-30T07:39:25.284Z,20.2
2018-03-30T07:40:26.924Z,22.0
2018-03-30T07:41:28.581Z,19.8
2018-03-30T07:42:30.244Z,20.6
2018-03-30T07:43:31.907Z,19.8
2018-03-30T07:44:33.565Z,22.4
2018-03-30T07:45:35.233Z,24.8
2018-03-30T07:46:36.941Z,32.9
2018-03-30T07:47:38.616Z,29.2
2018-03-30T07:48:40.386Z,25.4
2018-03-30T07:49:42.046Z,25.3
2018-03-30T07:50:43.713Z,20.7
2018-03-30T07:51:45.380Z,22.4
2018-03-30T07:52:47.054Z,22.9
2018-03-30T07:53:48.744Z,25.0
2018-03-30T07:54:50.498Z,22.0
2018-03-30T07:55:52.165Z,21.7
2018-03-30T07:56:53.820Z,21.0
2018-03-30T07:57:55.499Z,22.4
2018-03-30T07:58:57.145Z,19.2
2018-03-30T07:59:58.825Z,19.4
2018-03-30T08:01:00.494Z,21.2
2018-03-30T08:02:02.167Z,24.0
2018-03-30T08:03:03.855Z,21.8
2018-03-30T08:04:05.540Z,20.1
2018-03-30T08:05:07.212Z,22.9
2018-03-30T08:06:08.877Z,21.6
2018-03-30T08:07:10.538Z,20.7
2018-03-30T08:08:12.209Z,21.7
2018-03-30T08:09:13.875Z,21.0
2018-03-30T08:10:15.548Z,24.4
2018-03-30T08:11:17.208Z,20.7
2018-03-30T08:12:18.890Z,23.8
2018-03-30T08:13:20.557Z,22.5
2018-03-30T08:14:22.238Z,21.9
2018-03-30T08:15:24.012Z,25.8
2018-03-30T08:16:25.690Z,23.6
2018-03-30T08:17:27.365Z,21.6
2018-03-30T08:18:29.374Z,23.1
2018-03-30T08:19:31.049Z,22.7
2018-03-30T08:20:32.724Z,20.2
2018-03-30T08:21:34.404Z,18.5
2018-03-30T08:22:36.130Z,17.4
2018-03-30T08:23:37.744Z,16.8
2018-03-30T08:24:39.418Z,16.0
2018-03-30T08:25:41.093Z,14.1
2018-03-30T08:26:42.770Z,17.3
2018-03-30T08:27:44.442Z,16.1
2018-03-30T08:28:46.124Z,21.5
2018-03-30T08:29:47.811Z,16.5
2018-03-30T08:30:49.480Z,14.5
2018-03-30T08:31:51.157Z,17.6
2018-03-30T08:32:52.841Z,14.2
2018-03-30T08:33:54.509Z,15.4
2018-03-30T08:34:56.182Z,16.6
2018-03-30T08:35:57.854Z,16.2
2018-03-30T08:36:59.541Z,15.2
2018-03-30T08:38:01.211Z,14.1
2018-03-30T08:39:02.888Z,11.1
2018-03-30T08:40:04.549Z,14.5
2018-03-30T08:41:06.219Z,12.8
2018-03-30T08:42:07.887Z,12.0
2018-03-30T08:43:09.565Z,12.8
2018-03-30T08:44:11.228Z,13.0
2018-03-30T08:45:12.898Z,13.8
2018-03-30T08:46:14.566Z,12.2
2018-03-30T08:47:16.239Z,13.5
2018-03-30T08:48:17.912Z,12.0
2018-03-30T08:49:19.586Z,12.6
2018-03-30T08:50:21.252Z,11.9
2018-03-30T08:51:22.941Z,12.7
2018-03-30T08:52:24.621Z,10.4
2018-03-30T08:53:26.292Z,10.9
2018-03-30T08:54:27.964Z,11.3
2018-03-30T08:55:29.637Z,12.5
2018-03-30T08:56:31.297Z,14.2
2018-03-30T08:57:32.962Z,12.3
2018-03-30T08:58:34.631Z,11.4
2018-03-30T08:59:36.301Z,12.9
2018-03-30T09:00:37.988Z,11.5
2018-03-30T09:01:39.660Z,11.2
2018-03-30T09:02:41.331Z,15.0
2018-03-30T09:03:43.001Z,11.6
2018-03-30T09:04:44.677Z,10.3
2018-03-30T09:05:46.323Z,11.3
2018-03-30T09:06:48.000Z,12.5
2018-03-30T09:07:49.719Z,11.3
2018-03-30T09:08:51.340Z,11.6
2018-03-30T09:09:53.017Z,11.6
2018-03-30T09:10:54.702Z,12.2
2018-03-30T09:11:56.377Z,12.0
2018-03-30T09:12:58.054Z,11.6
2018-03-30T09:13:59.762Z,11.5
2018-03-30T09:15:01.408Z,12.3
2018-03-30T09:16:03.111Z,11.1
2018-03-30T09:17:04.771Z,12.2
2018-03-30T09:18:06.440Z,12.9
2018-03-30T09:19:08.117Z,11.8
2018-03-30T09:20:09.787Z,11.4
2018-03-30T09:21:11.455Z,11.2
2018-03-30T09:22:13.122Z,12.1
2018-03-30T09:23:14.805Z,10.0
2018-03-30T09:24:16.482Z,16.1
2018-03-30T09:25:18.154Z,10.9
2018-03-30T09:26:19.831Z,11.0
2018-03-30T09:27:21.519Z,10.9
2018-03-30T09:28:23.195Z,14.1
2018-03-30T09:29:24.890Z,12.4
2018-03-30T09:30:26.541Z,10.9
2018-03-30T09:31:28.203Z,11.7
2018-03-30T09:32:29.929Z,12.1
2018-03-30T09:33:31.542Z,15.4
2018-03-30T09:34:33.214Z,10.9
2018-03-30T09:35:34.882Z,10.9
2018-03-30T09:36:36.586Z,11.9
2018-03-30T09:37:38.258Z,12.8
2018-03-30T09:38:40.242Z,10.4
2018-03-30T09:39:41.863Z,12.5
2018-03-30T09:40:43.530Z,10.6
2018-03-30T09:41:45.196Z,12.1
2018-03-30T09:42:46.875Z,11.7
2018-03-30T09:43:48.566Z,12.5
2018-03-30T09:44:50.227Z,11.1
2018-03-30T09:45:51.897Z,16.9
2018-03-30T09:46:53.571Z,13.6
2018-03-30T09:47:55.238Z,11.2
2018-03-30T09:48:56.921Z,12.5
2018-03-30T09:49:58.590Z,14.4
2018-03-30T09:51:00.266Z,13.6
2018-03-30T09:52:01.973Z,10.3
2018-03-30T09:53:03.649Z,15.1
2018-03-30T09:54:05.313Z,11.0
2018-03-30T09:55:07.008Z,12.7
2018-03-30T10:01:20.071Z,12.2
2018-03-30T10:02:21.746Z,13.0
2018-03-30T10:04:13.622Z,11.0
2018-03-30T10:05:15.306Z,12.8
2018-03-30T10:06:16.983Z,12.8
2018-03-30T10:07:18.656Z,11.1
2018-03-30T10:08:20.338Z,11.9
2018-03-30T10:09:22.004Z,10.9
2018-03-30T10:10:23.674Z,10.9
2018-03-30T10:11:25.346Z,11.3
2018-03-30T10:12:27.088Z,13.5
2018-03-30T10:13:28.760Z,10.2
2018-03-30T10:14:30.427Z,11.7
2018-03-30T10:15:32.109Z,9.8
2018-03-30T10:16:33.820Z,11.7
2018-03-30T10:17:35.500Z,13.3
2018-03-30T10:18:37.173Z,11.3
2018-03-30T10:19:38.853Z,12.2
2018-03-30T10:20:40.524Z,11.8
2018-03-30T10:21:42.203Z,11.0
2018-03-30T10:22:43.946Z,10.8
2018-03-30T10:23:45.594Z,10.8
2018-03-30T10:24:47.266Z,11.4
2018-03-30T10:25:48.939Z,9.9
2018-03-30T10:26:50.618Z,12.0
2018-03-30T10:27:52.316Z,10.9
2018-03-30T10:28:55.814Z,12.3
2018-03-30T10:29:57.484Z,9.9
2018-03-30T10:30:59.161Z,9.7
2018-03-30T10:32:00.837Z,14.1
2018-03-30T10:33:02.506Z,11.5
2018-03-30T10:34:04.175Z,11.0
2018-03-30T10:35:05.866Z,10.9
2018-03-30T10:36:07.592Z,8.2
2018-03-30T10:37:09.242Z,10.7
2018-03-30T10:38:10.908Z,8.7
2018-03-30T10:39:12.575Z,11.4
2018-03-30T10:40:14.271Z,11.0
2018-03-30T10:41:15.947Z,10.4
2018-03-30T10:42:17.896Z,8.4
2018-03-30T10:43:19.582Z,8.9
2018-03-30T10:44:22.327Z,11.8
2018-03-30T10:45:23.987Z,10.5
2018-03-30T10:46:25.679Z,10.3
2018-03-30T10:47:27.371Z,11.0
2018-03-30T10:48:29.111Z,16.1
2018-03-30T10:49:30.841Z,10.9
2018-03-30T10:50:32.515Z,12.2
2018-03-30T10:51:34.205Z,12.1
2018-03-30T10:52:35.905Z,10.0
2018-03-30T10:53:37.599Z,11.5
2018-03-30T10:54:39.278Z,11.1
2018-03-30T10:55:40.979Z,10.3
2018-03-30T10:56:42.648Z,11.6
2018-03-30T10:57:44.331Z,12.1
2018-03-30T10:58:46.024Z,12.5
2018-03-30T10:59:47.687Z,14.6
2018-03-30T11:00:49.376Z,16.1
2018-03-30T11:01:51.087Z,10.8
2018-03-30T11:02:52.797Z,11.4
2018-03-30T11:03:57.075Z,12.5
2018-03-30T11:05:02.538Z,10.8
2018-03-30T11:06:04.297Z,10.5
2018-03-30T11:07:05.942Z,12.6
2018-03-30T11:08:07.647Z,12.0
2018-03-30T11:09:09.423Z,11.8
2018-03-30T11:10:11.124Z,12.2
2018-03-30T11:11:12.786Z,10.9
2018-03-30T11:12:14.474Z,11.7
2018-03-30T11:13:16.553Z,10.7
2018-03-30T11:14:18.245Z,12.6
2018-03-30T11:15:19.998Z,12.7
2018-03-30T11:16:21.738Z,12.3
2018-03-30T11:17:23.723Z,11.5
2018-03-30T11:18:25.812Z,11.6
2018-03-30T11:19:36.820Z,11.0
2018-03-30T11:20:38.437Z,11.2
2018-03-30T11:21:40.185Z,11.9
2018-03-30T11:22:42.058Z,11.1
2018-03-30T11:23:43.838Z,12.7
2018-03-30T11:24:45.580Z,9.8
2018-03-30T11:25:47.389Z,12.3
2018-03-30T11:26:49.262Z,11.9
2018-03-30T11:27:51.144Z,11.0
2018-03-30T11:28:52.784Z,11.7
2018-03-30T11:29:54.510Z,14.2
2018-03-30T11:30:56.308Z,11.5
2018-03-30T11:31:58.071Z,10.6
2018-03-30T11:32:59.829Z,13.3
2018-03-30T11:34:01.530Z,10.7
2018-03-30T11:35:03.332Z,10.4
2018-03-30T11:36:05.095Z,11.0
2018-03-30T11:37:06.852Z,10.9
2018-03-30T11:38:08.654Z,12.2
2018-03-30T11:39:10.456Z,10.5
2018-03-30T11:40:12.211Z,10.2
2018-03-30T11:41:13.969Z,10.4
2018-03-30T11:42:15.786Z,10.7
2018-03-30T11:43:17.523Z,10.5
2018-03-30T11:44:19.247Z,10.7
2018-03-30T11:45:21.154Z,9.0
2018-03-30T11:46:22.920Z,11.6
2018-03-30T11:47:24.619Z,11.7
2018-03-30T11:48:26.323Z,12.1
2018-03-30T11:49:28.007Z,9.8
2018-03-30T11:50:29.722Z,11.4
2018-03-30T11:51:31.417Z,10.9
2018-03-30T11:52:33.125Z,10.4
2018-03-30T11:53:34.896Z,10.4
2018-03-30T11:54:36.555Z,11.1
2018-03-30T11:55:38.239Z,11.0
2018-03-30T11:56:39.901Z,11.7
2018-03-30T11:57:41.576Z,11.9
2018-03-30T11:58:43.251Z,10.1
2018-03-30T11:59:44.931Z,9.6
2018-03-30T12:00:46.594Z,10.9
2018-03-30T12:01:48.267Z,12.4
2018-03-30T12:02:49.973Z,12.3
2018-03-30T12:03:53.039Z,12.1
2018-03-30T12:04:54.708Z,10.0
2018-03-30T12:05:56.439Z,11.7
2018-03-30T12:06:58.108Z,12.0
2018-03-30T12:07:59.817Z,10.5
2018-03-30T12:09:01.476Z,11.2
2018-03-30T12:10:03.394Z,12.0
2018-03-30T12:11:05.082Z,11.5
2018-03-30T12:12:06.739Z,10.2
2018-03-30T12:13:08.442Z,10.2
2018-03-30T12:14:10.110Z,13.0
2018-03-30T12:15:11.786Z,10.5
2018-03-30T12:16:13.453Z,8.7
2018-03-30T12:17:15.154Z,12.0
2018-03-30T12:18:16.842Z,10.0
2018-03-30T12:19:18.547Z,12.0
2018-03-30T12:20:20.278Z,11.7
2018-03-30T12:21:22.076Z,11.9
2018-03-30T12:22:23.818Z,11.2
2018-03-30T12:23:25.613Z,10.1
2018-03-30T12:24:27.290Z,14.2
2018-03-30T12:25:28.975Z,11.6
2018-03-30T12:26:30.913Z,11.3
2018-03-30T12:27:32.590Z,10.8
2018-03-30T12:28:34.258Z,9.8
2018-03-30T12:29:35.915Z,12.7
2018-03-30T12:30:37.571Z,9.9
2018-03-30T12:31:39.260Z,10.7
2018-03-30T12:32:40.946Z,10.8
2018-03-30T12:33:42.626Z,11.7
2018-03-30T12:34:44.296Z,12.4
2018-03-30T12:35:45.964Z,11.1
2018-03-30T12:36:47.630Z,9.3
2018-03-30T12:37:49.362Z,10.3
2018-03-30T12:38:51.023Z,11.9
2018-03-30T12:39:52.695Z,9.2
2018-03-30T12:40:54.373Z,9.7
2018-03-30T12:41:56.088Z,9.8
2018-03-30T12:42:57.761Z,9.7
2018-03-30T12:43:59.437Z,9.7
2018-03-30T12:45:01.089Z,9.7
2018-03-30T12:46:02.771Z,10.0
2018-03-30T12:47:04.465Z,8.2
2018-03-30T12:48:06.144Z,8.5
2018-03-30T12:49:07.825Z,9.3
2018-03-30T12:50:09.492Z,12.3
2018-03-30T12:51:11.161Z,9.2
2018-03-30T12:52:12.832Z,10.1
2018-03-30T12:53:14.513Z,10.0
2018-03-30T12:54:16.185Z,10.7
2018-03-30T12:55:17.848Z,9.4
2018-03-30T12:56:19.510Z,10.4
2018-03-30T12:57:21.183Z,10.1
2018-03-30T12:58:22.854Z,11.3
2018-03-30T12:59:24.508Z,10.0
2018-03-30T13:00:26.186Z,9.9
2018-03-30T13:01:27.868Z,13.0
2018-03-30T13:02:29.521Z,11.4
2018-03-30T13:03:31.203Z,10.0
2018-03-30T13:04:32.898Z,9.3
2018-03-30T13:05:34.573Z,10.7
2018-03-30T13:06:36.243Z,9.8
2018-03-30T13:07:37.912Z,10.0
2018-03-30T13:08:39.583Z,10.3
2018-03-30T13:09:41.277Z,9.3
2018-03-30T13:10:42.958Z,9.8
2018-03-30T13:11:44.653Z,11.1
2018-03-30T13:12:46.341Z,10.8
2018-03-30T13:13:48.001Z,10.3
2018-03-30T13:14:49.672Z,11.0
2018-03-30T13:15:51.327Z,10.4
2018-03-30T13:16:52.996Z,9.8
2018-03-30T13:17:54.667Z,9.0
2018-03-30T13:18:56.332Z,9.2
2018-03-30T13:19:57.994Z,10.0
2018-03-30T13:20:59.684Z,9.6
2018-03-30T13:22:01.355Z,10.8
2018-03-30T13:23:03.028Z,9.7
2018-03-30T13:24:04.690Z,10.5
2018-03-30T13:25:06.377Z,8.7
2018-03-30T13:26:08.055Z,9.0
2018-03-30T13:27:09.726Z,8.8
2018-03-30T13:28:11.406Z,8.6
2018-03-30T13:29:13.066Z,9.7
2018-03-30T13:30:14.740Z,8.8
2018-03-30T13:31:16.408Z,10.1
2018-03-30T13:32:18.069Z,10.0
2018-03-30T13:33:19.764Z,12.6
2018-03-30T13:34:21.431Z,10.9
2018-03-30T13:35:23.111Z,10.2
2018-03-30T13:36:24.799Z,9.3
2018-03-30T13:37:26.492Z,10.8
2018-03-30T13:38:28.169Z,9.6
2018-03-30T13:39:29.821Z,10.9
2018-03-30T13:40:31.482Z,9.6
2018-03-30T13:41:33.155Z,9.7
2018-03-30T13:42:36.286Z,9.6
2018-03-30T13:43:37.959Z,10.6
2018-03-30T13:44:39.649Z,11.0
2018-03-30T13:45:41.312Z,8.4
2018-03-30T13:46:42.984Z,12.9
2018-03-30T13:47:44.649Z,13.6
2018-03-30T13:48:46.326Z,9.9
2018-03-30T13:49:48.020Z,10.6
2018-03-30T13:50:49.696Z,9.1
2018-03-30T13:51:51.416Z,9.2
2018-03-30T13:52:53.127Z,9.9
2018-03-30T13:53:54.746Z,8.9
2018-03-30T13:54:56.417Z,10.7
2018-03-30T13:55:58.084Z,10.2
2018-03-30T14:02:11.292Z,15.5